Time;durP1;ratioP1;P1;durP2;ratioP2;P2;SDS_P1;SDS_P2;PMS_P1;PMS_P2;Temp;Humidity;BMP_temperature;BMP_pressure;BME280_temperature;BME280_humidity;BME280_pressure;Samples;Min_cycle;Max_cycle;Signal;HPM_P1;HPM_P2
2022/01/08 00:01:11;;;;;;;11.80;3.85;;;;;;;1.74;100.00;99997.50;5092072;28;20035;-60
2022/01/08 00:03:38;;;;;;;8.63;4.45;;;;;;;1.64;100.00;99993.41;5092153;28;20359;-60
2022/01/08 00:06:03;;;;;;;8.90;4.55;;;;;;;1.57;100.00;99997.00;5091721;28;20089;-60
2022/01/08 00:08:29;;;;;;;7.20;4.25;;;;;;;1.48;100.00;99995.47;5090487;28;20057;-60
2022/01/08 00:10:55;;;;;;;8.43;4.20;;;;;;;1.40;100.00;99994.75;5084920;28;20035;-60
2022/01/08 00:13:21;;;;;;;6.25;3.33;;;;;;;1.18;100.00;99977.94;5091970;28;20035;-60
2022/01/08 00:15:46;;;;;;;9.10;4.70;;;;;;;1.20;100.00;100002.91;5091555;28;20115;-60
2022/01/08 00:18:11;;;;;;;6.93;3.85;;;;;;;1.16;100.00;100002.97;5091661;28;20135;-60
2022/01/08 00:20:37;;;;;;;12.90;4.38;;;;;;;1.10;100.00;100010.84;5091826;28;20644;-60
2022/01/08 00:23:03;;;;;;;7.15;4.28;;;;;;;0.99;100.00;100009.31;5091541;28;20115;-60
2022/01/08 00:25:28;;;;;;;8.70;4.35;;;;;;;0.94;100.00;100005.13;5090629;28;20138;-60
2022/01/08 00:27:54;;;;;;;9.18;4.25;;;;;;;0.91;100.00;100013.75;5091430;28;20032;-60
2022/01/08 00:30:19;;;;;;;9.07;4.82;;;;;;;0.85;100.00;100023.34;5092104;28;20074;-60
2022/01/08 00:32:45;;;;;;;6.95;4.38;;;;;;;0.77;100.00;100023.50;5107778;28;20028;-60
2022/01/08 00:35:11;;;;;;;7.20;4.50;;;;;;;0.60;100.00;99997.06;5091153;28;20417;-60
2022/01/08 00:37:39;;;;;;;13.63;4.70;;;;;;;0.71;100.00;100026.16;5091222;28;20040;-60
2022/01/08 00:40:06;;;;;;;10.38;5.72;;;;;;;0.65;100.00;100023.69;5091403;28;20024;-60
2022/01/08 00:42:32;;;;;;;7.57;4.35;;;;;;;0.61;100.00;100024.59;5091567;28;20032;-60
2022/01/08 00:44:57;;;;;;;8.60;4.63;;;;;;;0.33;100.00;99980.28;5091225;28;20050;-60
2022/01/08 00:47:23;;;;;;;18.88;5.13;;;;;;;0.62;100.00;100039.25;5090505;28;20398;-60
2022/01/08 00:49:48;;;;;;;7.53;4.55;;;;;;;0.63;100.00;100040.97;5090703;28;20036;-60
2022/01/08 00:52:13;;;;;;;9.40;4.97;;;;;;;0.66;100.00;100042.63;5084787;28;20475;-60
2022/01/08 00:54:39;;;;;;;8.15;4.75;;;;;;;0.63;100.00;100051.31;5090192;28;20429;-60
2022/01/08 00:57:05;;;;;;;11.52;5.78;;;;;;;0.59;100.00;100062.56;5090862;28;20492;-60
2022/01/08 00:59:30;;;;;;;16.20;6.30;;;;;;;0.38;100.00;100040.47;5090929;28;20086;-60
2022/01/08 01:01:56;;;;;;;9.98;5.50;;;;;;;0.52;100.00;100068.69;5087266;28;20020;-60
2022/01/08 01:04:21;;;;;;;12.75;5.85;;;;;;;0.45;100.00;100069.66;5090559;28;20032;-60
2022/01/08 01:06:47;;;;;;;12.05;6.20;;;;;;;0.41;100.00;100068.84;5090545;28;20077;-60
2022/01/08 01:09:12;;;;;;;13.23;4.97;;;;;;;0.39;100.00;100062.88;5090542;28;20107;-60
2022/01/08 01:11:37;;;;;;;9.63;5.82;;;;;;;0.40;100.00;100059.41;5090451;28;20786;-60
2022/01/08 01:14:03;;;;;;;13.55;6.05;;;;;;;0.37;100.00;100063.78;5090277;28;20032;-60
2022/01/08 01:16:28;;;;;;;16.00;6.00;;;;;;;0.31;100.00;100056.94;5090071;28;20039;-60
2022/01/08 01:18:55;;;;;;;13.48;6.28;;;;;;;0.29;100.00;100060.44;5089126;28;20074;-60
2022/01/08 01:21:20;;;;;;;10.50;6.32;;;;;;;0.16;100.00;100033.94;5091059;28;20028;-59
2022/01/08 01:23:47;;;;;;;9.32;6.45;;;;;;;0.28;100.00;100048.38;5086708;28;20410;-60
2022/01/08 01:26:17;;;;;;;17.27;5.70;;;;;;;0.18;100.00;100041.63;5090596;28;20059;-60
2022/01/08 01:47:18;;;;;;;14.02;7.25;;;;;;;-0.39;100.00;100013.13;5090730;28;20063;-60
2022/01/08 01:49:46;;;;;;;16.38;8.00;;;;;;;-0.08;100.00;100066.09;5090398;28;20028;-60
2022/01/08 01:52:15;;;;;;;17.77;7.20;;;;;;;-0.12;100.00;100074.75;5089800;28;20028;-60
2022/01/08 01:54:41;;;;;;;12.38;7.35;;;;;;;-0.12;100.00;100069.59;5088157;28;20082;-59
2022/01/08 01:57:08;;;;;;;12.88;8.27;;;;;;;-0.11;100.00;100075.59;5090711;28;20077;-60
2022/01/08 01:59:35;;;;;;;13.30;8.35;;;;;;;-0.08;100.00;100066.09;5094255;28;20024;-59
2022/01/08 02:02:00;;;;;;;14.80;7.63;;;;;;;-0.06;100.00;100085.00;5094664;28;20127;-60
2022/01/08 02:04:26;;;;;;;11.95;8.45;;;;;;;-0.05;100.00;100071.22;5109965;28;20098;-60
2022/01/08 02:06:52;;;;;;;15.38;8.88;;;;;;;-0.06;100.00;100069.50;5093839;28;20027;-60
2022/01/08 02:09:18;;;;;;;17.85;9.52;;;;;;;-0.04;100.00;100078.09;5093881;28;20031;-60
2022/01/08 02:12:01;;;;;;;15.38;10.05;;;;;;;-0.03;100.00;100071.19;5093279;28;20470;-60
2022/01/08 02:14:28;;;;;;;17.85;10.38;;;;;;;-0.03;100.00;100069.47;5090847;28;20093;-60
2022/01/08 02:16:54;;;;;;;19.77;10.48;;;;;;;-0.02;100.00;100065.16;5092823;28;20393;-60
2022/01/08 02:19:21;;;;;;;19.23;10.85;;;;;;;-0.05;100.00;100071.22;5093440;28;20103;-60
2022/01/08 02:21:51;;;;;;;18.55;11.35;;;;;;;-0.09;100.00;100073.84;5093351;28;20047;-60
2022/01/08 02:24:16;;;;;;;17.85;11.00;;;;;;;-0.11;100.00;100078.19;5093117;28;20055;-60
2022/01/08 02:26:42;;;;;;;22.17;12.35;;;;;;;-0.11;100.00;100086.78;5093838;28;20402;-60
2022/01/08 02:29:12;;;;;;;21.83;12.95;;;;;;;-0.30;100.00;100045.72;5094054;28;20047;-60
2022/01/08 02:31:38;;;;;;;26.20;14.48;;;;;;;-0.08;100.00;100094.50;5092422;28;20484;-60
2022/01/08 02:34:05;;;;;;;22.50;14.07;;;;;;;-0.12;100.00;100084.22;5094135;28;20146;-60
2022/01/08 02:36:30;;;;;;;24.42;13.45;;;;;;;-0.05;100.00;100091.00;5093702;28;20024;-60
2022/01/08 02:38:56;;;;;;;25.08;14.55;;;;;;;-0.08;100.00;100091.91;5093377;28;20031;-60
2022/01/08 02:41:21;;;;;;;23.67;14.95;;;;;;;-0.02;100.00;100102.16;5093150;28;20038;-60
2022/01/08 02:43:52;;;;;;;22.38;14.85;;;;;;;-0.02;100.00;100101.31;5092643;28;20051;-60
2022/01/08 02:46:18;;;;;;;28.13;15.70;;;;;;;-0.06;100.00;100095.31;5093145;28;20046;-60
2022/01/08 02:48:43;;;;;;;23.85;15.10;;;;;;;-0.01;100.00;100101.28;5093108;28;20350;-59
2022/01/08 02:51:09;;;;;;;23.80;15.30;;;;;;;-0.02;100.00;100109.03;5093585;28;20032;-59
2022/01/08 02:53:34;;;;;;;33.88;15.65;;;;;;;0.00;100.00;100112.47;5093159;28;20031;-60
2022/01/08 02:55:59;;;;;;;30.45;16.50;;;;;;;0.06;100.00;100114.13;5092987;28;20599;-59
2022/01/08 02:58:28;;;;;;;31.00;16.30;;;;;;;0.07;100.00;100108.94;5092871;28;20024;-60
2022/01/08 03:00:54;;;;;;;27.65;16.00;;;;;;;0.07;100.00;100108.94;5093401;28;20113;-60
2022/01/08 03:03:19;;;;;;;28.35;15.95;;;;;;;0.11;100.00;100115.75;5093066;28;20078;-60
2022/01/08 03:05:45;;;;;;;30.42;16.30;;;;;;;0.17;100.00;100110.50;5092390;28;20040;-60
2022/01/08 03:08:10;;;;;;;34.85;15.48;;;;;;;0.27;100.00;100114.69;5092669;28;20032;-60
2022/01/08 03:10:35;;;;;;;22.90;15.38;;;;;;;0.30;100.00;100116.41;5091123;28;20119;-60
2022/01/08 03:13:02;;;;;;;25.25;15.18;;;;;;;0.27;100.00;100109.53;5090109;28;20024;-60
2022/01/08 03:15:27;;;;;;;29.60;15.48;;;;;;;0.25;100.00;100105.25;5074585;28;20489;-60
2022/01/08 03:17:53;;;;;;;31.30;15.35;;;;;;;0.19;100.00;100105.34;5092377;28;20031;-59
2022/01/08 03:20:18;;;;;;;28.63;16.17;;;;;;;0.15;100.00;100104.53;5092278;28;20034;-60
2022/01/08 03:22:46;;;;;;;24.55;14.90;;;;;;;0.12;100.00;100117.47;5091836;28;20044;-60
2022/01/08 03:25:12;;;;;;;19.40;13.10;;;;;;;0.11;100.00;100104.56;5091813;28;20028;-59
2022/01/08 03:27:38;;;;;;;26.63;14.35;;;;;;;0.06;100.00;100109.81;5093089;28;20046;-60
2022/01/08 03:30:05;;;;;;;21.30;13.45;;;;;;;0.05;100.00;100109.81;5092412;28;20032;-60
2022/01/08 03:32:30;;;;;;;22.98;13.27;;;;;;;0.03;100.00;100112.44;5091849;28;20089;-60
2022/01/08 03:34:55;;;;;;;20.08;13.95;;;;;;;-0.03;100.00;100115.94;5092341;28;20024;-60
2022/01/08 03:37:21;;;;;;;26.00;13.85;;;;;;;-0.07;100.00;100122.00;5090474;28;20054;-59
2022/01/08 03:39:46;;;;;;;26.73;14.10;;;;;;;-0.06;100.00;100125.44;5091008;28;20035;-60
2022/01/08 03:42:11;;;;;;;23.60;13.95;;;;;;;-0.03;100.00;100126.25;5091748;28;20059;-60
2022/01/08 03:44:37;;;;;;;28.50;13.45;;;;;;;-0.08;100.00;100122.03;5087095;28;20043;-60
2022/01/08 03:47:30;;;;;;;23.90;13.82;;;;;;;-0.06;100.00;100118.56;5091534;28;20055;-59
2022/01/08 03:49:57;;;;;;;22.75;13.15;;;;;;;-0.09;100.00;100118.59;5091773;28;20043;-60
2022/01/08 03:52:22;;;;;;;21.25;13.73;;;;;;;-0.12;100.00;100121.22;5090920;28;20031;-60
2022/01/08 03:54:48;;;;;;;25.77;14.23;;;;;;;-0.16;100.00;100118.69;5090093;28;20039;-59
2022/01/08 03:57:13;;;;;;;26.65;13.48;;;;;;;-0.22;100.00;100122.19;5090885;28;20398;-59
2022/01/08 03:59:39;;;;;;;20.60;12.43;;;;;;;-0.18;100.00;100121.28;5089610;28;20036;-59
2022/01/08 04:02:04;;;;;;;22.75;12.40;;;;;;;-0.57;100.00;100052.91;5091020;28;20592;-59
2022/01/08 04:04:30;;;;;;;25.67;13.00;;;;;;;-0.23;100.00;100111.88;5091181;28;20113;-60
2022/01/08 04:06:55;;;;;;;22.40;12.52;;;;;;;-0.13;100.00;100119.50;5090853;28;20478;-59
2022/01/08 04:09:20;;;;;;;24.05;12.43;;;;;;;-0.16;100.00;100129.00;5091129;28;20051;-59
2022/01/08 04:11:46;;;;;;;18.77;12.63;;;;;;;-0.19;100.00;100126.47;5089961;28;20501;-59
2022/01/08 04:14:13;;;;;;;19.17;11.98;;;;;;;-0.20;100.00;100124.75;5090782;28;20039;-59
2022/01/08 04:16:43;;;;;;;25.90;12.75;;;;;;;-0.19;100.00;100122.16;5086256;28;20398;-59
2022/01/08 04:19:08;;;;;;;24.33;13.13;;;;;;;-0.22;100.00;100134.25;5087242;28;20067;-60
2022/01/08 04:24:02;;;;;;;23.42;12.00;;;;;;;-0.21;100.00;100133.38;5090392;28;20032;-60
2022/01/08 04:26:28;;;;;;;20.95;11.82;;;;;;;-0.23;100.00;100132.53;5091400;28;20024;-60
2022/01/08 04:28:53;;;;;;;23.27;13.85;;;;;;;-0.28;100.00;100142.91;5091080;28;20572;-60
2022/01/08 04:31:19;;;;;;;25.13;13.63;;;;;;;-0.26;100.00;100143.75;5071483;28;20526;-60
2022/01/08 04:33:45;;;;;;;25.85;12.95;;;;;;;-0.26;100.00;100143.75;5090927;28;20447;-59
2022/01/08 04:36:10;;;;;;;25.92;14.45;;;;;;;-0.45;100.00;100106.09;5090584;28;20031;-59
2022/01/08 04:38:36;;;;;;;24.02;13.02;;;;;;;-0.63;100.00;100086.50;5091107;28;20025;-59
2022/01/08 04:41:01;;;;;;;23.70;13.38;;;;;;;-0.31;100.00;100145.53;5091384;28;20032;-59
2022/01/08 04:43:28;;;;;;;26.00;15.57;;;;;;;-0.34;100.00;100155.88;5090971;28;20073;-60
2022/01/08 04:45:54;;;;;;;27.85;14.15;;;;;;;-0.29;100.00;100159.25;5081149;28;20040;-60
2022/01/08 04:48:19;;;;;;;25.30;12.88;;;;;;;-0.31;100.00;100158.44;5091032;28;20485;-60
2022/01/08 04:50:44;;;;;;;23.73;13.25;;;;;;;-0.37;100.00;100155.88;5090809;28;20038;-59
2022/01/08 04:53:10;;;;;;;23.25;13.32;;;;;;;-0.38;100.00;100156.78;5090770;28;20028;-59
2022/01/08 04:55:36;;;;;;;24.20;12.82;;;;;;;-0.36;100.00;100162.78;5090279;28;20032;-60
2022/01/08 04:58:03;;;;;;;24.13;12.05;;;;;;;-0.41;100.00;100161.97;5089914;28;20031;-60
2022/01/08 05:00:28;;;;;;;21.35;12.82;;;;;;;-0.46;100.00;100176.63;5090755;28;20147;-60
2022/01/08 05:02:53;;;;;;;22.00;13.23;;;;;;;-0.40;100.00;100171.41;5090459;28;20214;-60
2022/01/08 05:05:19;;;;;;;19.40;13.85;;;;;;;-0.41;100.00;100180.03;5090055;28;20043;-59
2022/01/08 05:07:44;;;;;;;26.65;14.63;;;;;;;-0.44;100.00;100182.63;5090455;28;20052;-59
2022/01/08 05:10:10;;;;;;;24.73;14.73;;;;;;;-0.42;100.00;100180.91;5089369;28;20503;-59
2022/01/08 05:12:36;;;;;;;24.30;15.07;;;;;;;-0.41;100.00;100190.38;5090828;28;20380;-60
2022/01/08 05:15:02;;;;;;;25.23;15.95;;;;;;;-0.50;100.00;100180.09;5090124;28;20028;-60
2022/01/08 05:17:33;;;;;;;26.23;15.35;;;;;;;-0.54;100.00;100173.25;5090356;28;20507;-59
2022/01/08 05:20:02;;;;;;;22.20;15.18;;;;;;;-0.50;100.00;100172.38;5089956;28;20039;-59
2022/01/08 05:22:30;;;;;;;27.58;17.02;;;;;;;-0.37;100.00;100202.34;5090692;28;20031;-60
2022/01/08 05:24:56;;;;;;;30.23;16.85;;;;;;;-0.61;100.00;100166.47;5090107;28;20071;-59
2022/01/08 05:27:22;;;;;;;22.83;15.98;;;;;;;-0.40;100.00;100215.28;5090180;28;20031;-59
2022/01/08 05:29:49;;;;;;;35.30;17.90;;;;;;;-0.40;100.00;100210.13;5090119;28;20020;-60
2022/01/08 05:32:18;;;;;;;29.25;18.20;;;;;;;-0.48;100.00;100183.53;5088375;28;20505;-59
2022/01/08 05:34:44;;;;;;;28.42;16.17;;;;;;;-0.63;100.00;100166.47;5106045;28;20501;-59
2022/01/08 05:37:10;;;;;;;27.15;17.17;;;;;;;-0.41;100.00;100213.59;5093558;28;20031;-59
2022/01/08 05:39:35;;;;;;;29.83;18.27;;;;;;;-0.48;100.00;100193.00;5092866;28;20444;-59
2022/01/08 05:42:01;;;;;;;30.17;17.23;;;;;;;-0.73;100.00;100146.78;5108804;28;20036;-59
2022/01/08 05:44:26;;;;;;;30.83;18.35;;;;;;;-0.42;100.00;100204.13;5093769;28;20526;-60
2022/01/08 05:46:52;;;;;;;28.98;17.98;;;;;;;-0.32;100.00;100197.16;5092206;28;20454;-59
2022/01/08 05:49:17;;;;;;;25.65;17.02;;;;;;;-0.39;100.00;100201.50;5093403;28;20039;-59
2022/01/08 05:51:43;;;;;;;29.00;18.30;;;;;;;-0.42;100.00;100191.22;5093436;28;20040;-59
2022/01/08 05:54:08;;;;;;;33.40;19.05;;;;;;;-0.42;100.00;100191.22;5093169;28;20040;-59
2022/01/08 05:56:34;;;;;;;29.10;18.70;;;;;;;-0.46;100.00;100194.69;5092900;28;20040;-59
2022/01/08 05:58:59;;;;;;;34.03;17.73;;;;;;;-0.68;100.00;100170.81;5092515;28;20047;-59
2022/01/08 06:01:25;;;;;;;27.92;18.38;;;;;;;-0.52;100.00;100202.50;5093578;28;20536;-59
2022/01/08 06:03:50;;;;;;;33.78;18.63;;;;;;;-0.53;100.00;100203.34;5093580;28;20043;-59
2022/01/08 06:06:16;;;;;;;28.15;18.02;;;;;;;-0.57;100.00;100209.41;5091682;28;20036;-59
2022/01/08 06:08:41;;;;;;;29.90;18.88;;;;;;;-0.62;100.00;100206.03;5088929;28;20032;-59
2022/01/08 06:11:06;;;;;;;35.45;18.98;;;;;;;-0.65;100.00;100217.22;5092776;28;20028;-59
2022/01/08 06:13:32;;;;;;;29.35;18.85;;;;;;;-0.64;100.00;100223.22;5093529;28;20031;-59
2022/01/08 06:15:57;;;;;;;34.90;20.40;;;;;;;-0.57;100.00;100227.47;5093440;28;20031;-59
2022/01/08 06:18:22;;;;;;;42.00;23.73;;;;;;;-0.48;100.00;100230.00;5093161;28;20053;-60
2022/01/08 06:20:48;;;;;;;32.15;22.13;;;;;;;-0.44;100.00;100231.66;5093620;28;20032;-59
2022/01/08 06:23:13;;;;;;;32.17;22.85;;;;;;;-0.46;100.00;100220.50;5091203;28;20470;-59
2022/01/08 06:25:43;;;;;;;32.65;22.88;;;;;;;-0.35;100.00;100234.19;5092987;28;20119;-59
2022/01/08 06:28:09;;;;;;;41.42;25.02;;;;;;;-0.29;100.00;100239.28;5093429;28;20036;-60
2022/01/08 06:30:34;;;;;;;37.03;24.67;;;;;;;-0.23;100.00;100246.97;5109510;28;20039;-59
2022/01/08 06:32:59;;;;;;;39.25;24.65;;;;;;;-0.16;100.00;100248.63;5092364;28;20028;-59
2022/01/08 06:35:25;;;;;;;42.78;26.00;;;;;;;-0.13;100.00;100243.41;5093273;28;20071;-59
2022/01/08 06:37:50;;;;;;;37.70;24.90;;;;;;;-0.11;100.00;100243.41;5092483;28;20024;-59
2022/01/08 06:40:15;;;;;;;37.72;24.85;;;;;;;-0.09;100.00;100228.75;5090706;28;20115;-59
2022/01/08 06:42:41;;;;;;;43.40;26.75;;;;;;;-0.10;100.00;100224.44;5092618;28;20389;-60
2022/01/08 06:45:06;;;;;;;48.45;26.75;;;;;;;-0.14;100.00;100226.25;5106916;28;20031;-59
2022/01/08 06:47:33;;;;;;;48.17;27.77;;;;;;;-0.14;100.00;100231.41;5093304;28;20509;-60
2022/01/08 06:49:59;;;;;;;46.67;27.92;;;;;;;-0.16;100.00;100222.81;5092838;28;20451;-60
2022/01/08 06:52:24;;;;;;;37.90;26.50;;;;;;;-0.15;100.00;100221.06;5092690;28;20077;-60
2022/01/08 06:54:49;;;;;;;46.67;26.02;;;;;;;-0.24;100.00;100224.63;5091741;28;20475;-59
2022/01/08 06:57:15;;;;;;;44.60;26.05;;;;;;;-0.26;100.00;100226.34;5090900;28;20032;-59
2022/01/08 06:59:40;;;;;;;45.72;27.50;;;;;;;-0.26;100.00;100221.19;5091065;28;20035;-59
2022/01/08 07:02:06;;;;;;;43.95;26.13;;;;;;;-0.24;100.00;100221.19;5091326;28;20032;-60
2022/01/08 07:04:31;;;;;;;38.13;26.70;;;;;;;-0.30;100.00;100211.75;5091892;28;20569;-59
2022/01/08 07:06:57;;;;;;;40.60;28.05;;;;;;;-0.23;100.00;100223.72;5091394;28;20028;-59
2022/01/08 07:09:22;;;;;;;49.03;28.10;;;;;;;-0.21;100.00;100224.59;5091602;28;20761;-59
2022/01/08 07:11:47;;;;;;;50.00;30.88;;;;;;;-0.19;100.00;100220.25;5092115;28;20028;-59
2022/01/08 07:14:13;;;;;;;45.17;28.67;;;;;;;-0.19;100.00;100212.50;5090936;28;20058;-60
2022/01/08 07:16:38;;;;;;;44.65;30.38;;;;;;;-0.11;100.00;100204.69;5091194;28;20059;-60
2022/01/08 07:19:03;;;;;;;44.55;31.65;;;;;;;0.09;100.00;100223.41;5090131;28;20049;-60
2022/01/08 07:21:29;;;;;;;47.45;30.88;;;;;;;0.21;100.00;100217.25;5091080;28;20389;-60
2022/01/08 07:23:56;;;;;;;48.78;32.95;;;;;;;0.26;100.00;100224.09;5091072;28;20031;-59
2022/01/08 07:26:21;;;;;;;44.33;29.65;;;;;;;0.28;100.00;100219.75;5090797;28;20031;-59
2022/01/08 07:28:46;;;;;;;47.85;31.88;;;;;;;0.33;100.00;100217.13;5090019;28;20034;-60
2022/01/08 07:31:12;;;;;;;51.58;30.50;;;;;;;0.37;100.00;100219.63;5107096;28;20451;-60
2022/01/08 07:33:37;;;;;;;46.15;29.83;;;;;;;0.44;100.00;100226.44;5091195;28;20112;-60
2022/01/08 07:36:03;;;;;;;55.38;30.23;;;;;;;0.49;100.00;100229.84;5091294;28;20083;-60
2022/01/08 07:38:28;;;;;;;51.55;30.10;;;;;;;0.56;100.00;100225.44;5058910;28;20028;-60
2022/01/08 07:40:54;;;;;;;52.70;30.23;;;;;;;0.15;100.00;100155.31;5046317;28;20056;-59
2022/01/08 07:43:20;;;;;;;48.92;31.63;;;;;;;0.59;100.00;100225.41;5047279;28;20028;-60
2022/01/08 07:45:46;;;;;;;45.15;29.80;;;;;;;0.60;100.00;100216.78;5047709;28;20032;-60
2022/01/08 07:48:11;;;;;;;47.95;29.90;;;;;;;0.37;100.00;100177.47;5029809;28;20028;-60
2022/01/08 07:50:36;;;;;;;41.45;27.35;;;;;;;0.69;100.00;100218.38;5047809;28;20020;-60
2022/01/08 07:53:02;;;;;;;44.78;29.15;;;;;;;0.73;100.00;100223.50;5047127;28;20858;-60
2022/01/08 07:55:27;;;;;;;47.97;28.38;;;;;;;0.80;100.00;100230.28;5029850;28;20134;-60
2022/01/08 07:57:53;;;;;;;58.50;31.15;;;;;;;0.83;100.00;100225.09;5045454;28;20128;-59
2022/01/08 08:00:18;;;;;;;49.63;29.83;;;;;;;0.83;100.00;100224.22;5046492;28;20035;-59
2022/01/08 08:02:44;;;;;;;43.92;27.15;;;;;;;0.63;100.00;100187.44;5046847;28;20024;-59
2022/01/08 08:05:09;;;;;;;43.20;27.70;;;;;;;0.68;100.00;100176.16;5047976;28;20941;-59
2022/01/08 08:07:38;;;;;;;50.78;28.45;;;;;;;0.98;100.00;100217.09;5048640;28;20056;-59
2022/01/08 08:10:10;;;;;;;46.95;27.10;;;;;;;1.01;100.00;100208.47;5049153;28;20027;-59
2022/01/08 08:12:36;;;;;;;44.90;27.27;;;;;;;1.02;100.00;100205.84;5046687;28;20024;-59
2022/01/08 08:15:02;;;;;;;45.55;27.52;;;;;;;1.05;100.00;100214.44;5047698;28;20024;-59
2022/01/08 08:17:27;;;;;;;55.35;27.83;;;;;;;1.03;100.00;100196.34;5043125;28;20028;-59
2022/01/08 08:19:53;;;;;;;46.20;26.02;;;;;;;1.02;100.00;100198.06;5046777;28;21058;-59
2022/01/08 08:22:18;;;;;;;39.53;26.15;;;;;;;1.05;100.00;100198.94;5046919;28;20753;-59
2022/01/08 08:24:43;;;;;;;40.25;27.05;;;;;;;1.03;100.00;100189.44;5046558;28;20070;-59
2022/01/08 08:27:09;;;;;;;37.53;25.48;;;;;;;1.07;100.00;100181.63;5047183;28;20903;-59
2022/01/08 08:29:34;;;;;;;49.30;25.33;;;;;;;1.08;100.00;100183.34;5047309;28;20034;-59
2022/01/08 08:32:00;;;;;;;44.45;26.33;;;;;;;1.13;100.00;100181.53;5047112;28;20029;-59
2022/01/08 08:34:25;;;;;;;36.00;24.00;;;;;;;1.14;100.00;100180.66;5047487;28;20028;-59
2022/01/08 08:36:50;;;;;;;49.60;26.50;;;;;;;1.18;100.00;100184.91;5048475;28;20024;-59
2022/01/08 08:39:16;;;;;;;41.80;26.30;;;;;;;1.21;100.00;100185.72;5049585;28;20024;-59
2022/01/08 08:41:41;;;;;;;44.63;25.30;;;;;;;1.22;100.00;100177.06;5049805;28;20178;-59
2022/01/08 08:44:07;;;;;;;42.75;25.98;;;;;;;1.25;100.00;100182.19;5049592;28;20572;-59
2022/01/08 08:46:32;;;;;;;40.78;26.58;;;;;;;1.27;100.00;100184.75;5048049;28;20032;-59
2022/01/08 08:48:57;;;;;;;45.80;25.63;;;;;;;1.32;100.00;100183.78;5046943;28;20824;-59
2022/01/08 08:51:23;;;;;;;45.92;25.00;;;;;;;1.36;100.00;100179.44;5046694;28;20560;-59
2022/01/08 08:53:48;;;;;;;39.53;23.40;;;;;;;1.40;100.00;100188.84;5048819;28;20062;-59
2022/01/08 08:56:13;;;;;;;42.20;24.63;;;;;;;1.43;100.00;100181.91;5045661;28;20028;-59
2022/01/08 08:58:39;;;;;;;39.00;23.52;;;;;;;1.48;100.00;100168.88;5044781;28;20826;-59
2022/01/08 09:01:04;;;;;;;40.85;24.13;;;;;;;1.52;100.00;100175.72;5046487;28;20032;-59
2022/01/08 09:03:29;;;;;;;39.78;22.77;;;;;;;1.38;100.00;100144.91;5045909;28;20882;-59
2022/01/08 09:05:55;;;;;;;39.88;22.33;;;;;;;1.63;100.00;100171.19;5046305;28;20034;-59
2022/01/08 09:08:20;;;;;;;28.90;20.08;;;;;;;1.70;100.00;100164.16;5048594;28;20032;-59
2022/01/08 09:10:46;;;;;;;30.38;20.08;;;;;;;1.76;100.00;100161.50;5050056;28;20027;-59
2022/01/08 09:13:11;;;;;;;29.15;18.98;;;;;;;1.81;100.00;100157.91;5049848;28;20052;-59
2022/01/08 09:15:41;;;;;;;32.05;16.60;;;;;;;1.69;100.00;100142.59;5050138;28;20781;-59
2022/01/08 09:18:07;;;;;;;30.17;17.38;;;;;;;1.87;100.00;100164.72;5048767;28;20036;-59
2022/01/08 09:20:33;;;;;;;29.00;16.73;;;;;;;1.89;100.00;100156.03;5033354;28;20020;-61
2022/01/08 09:22:58;;;;;;;26.00;16.23;;;;;;;1.95;100.00;100166.28;5050391;28;20225;-59
2022/01/08 09:25:24;;;;;;;23.80;16.88;;;;;;;1.94;100.00;100158.53;5049173;28;20024;-60
2022/01/08 09:27:49;;;;;;;30.17;15.73;;;;;;;1.98;100.00;100161.06;5049733;28;20032;-60
2022/01/08 09:30:15;;;;;;;23.10;14.98;;;;;;;1.64;100.00;100090.06;5050993;28;20862;-59
2022/01/08 09:32:43;;;;;;;21.52;14.88;;;;;;;1.88;100.00;100125.84;5048306;28;20028;-60
2022/01/08 09:35:10;;;;;;;24.80;13.10;;;;;;;2.09;100.00;100152.22;5031128;28;20081;-59
2022/01/08 09:37:39;;;;;;;22.98;14.02;;;;;;;2.13;100.00;100143.50;5050217;28;20032;-60
2022/01/08 09:40:09;;;;;;;20.60;13.25;;;;;;;2.04;100.00;100118.63;5049414;28;20024;-59
2022/01/08 09:42:34;;;;;;;27.23;14.55;;;;;;;2.06;100.00;100111.69;5050927;28;20058;-59
2022/01/08 09:45:00;;;;;;;25.10;15.43;;;;;;;2.23;100.00;100130.31;5049378;28;20040;-59
2022/01/08 09:47:25;;;;;;;22.67;14.35;;;;;;;2.27;100.00;100133.69;5049303;28;20032;-59
2022/01/08 09:49:51;;;;;;;23.73;13.68;;;;;;;2.06;100.00;100086.59;5048816;28;20047;-59
2022/01/08 09:52:16;;;;;;;26.35;14.02;;;;;;;2.31;100.00;100131.00;5050440;28;20031;-59
2022/01/08 09:54:41;;;;;;;21.15;13.90;;;;;;;2.35;100.00;100119.69;5049419;28;20034;-60
2022/01/08 09:57:07;;;;;;;22.67;12.75;;;;;;;2.39;100.00;100110.13;5049626;28;20786;-60
2022/01/08 09:59:33;;;;;;;19.08;12.15;;;;;;;2.41;100.00;100110.91;5047301;28;20031;-59
2022/01/08 10:02:00;;;;;;;20.25;12.18;;;;;;;2.51;100.00;100108.09;5049365;28;20028;-59
2022/01/08 10:04:27;;;;;;;18.42;12.05;;;;;;;2.60;100.00;100103.59;5047665;28;20380;-60
2022/01/08 10:07:12;;;;;;;18.83;11.65;;;;;;;2.62;100.00;100087.13;5047586;28;20043;-59
2022/01/08 10:09:38;;;;;;;19.38;11.50;;;;;;;2.60;100.00;100083.72;5050882;28;20190;-59
2022/01/08 10:12:04;;;;;;;26.40;11.57;;;;;;;2.48;100.00;100055.44;5049549;28;20040;-59
2022/01/08 10:17:13;;;;;;;24.58;10.35;;;;;;;2.67;100.00;100067.09;5048632;28;20039;-60
2022/01/08 10:17:42;;;;;;;18.77;10.23;;;;;;;2.73;100.00;100066.97;5046535;28;21087;-59
2022/01/08 10:20:08;;;;;;;13.30;9.23;;;;;;;2.75;100.00;100065.19;5047391;28;20039;-60
2022/01/08 10:22:33;;;;;;;14.50;8.55;;;;;;;2.77;100.00;100050.41;5047480;28;20135;-59
2022/01/08 10:25:19;;;;;;;23.30;10.30;;;;;;;2.83;100.00;100047.69;5046961;28;20043;-59
2022/01/08 10:27:45;;;;;;;17.45;9.65;;;;;;;2.86;100.00;100039.84;5046201;28;20171;-60
2022/01/08 10:30:26;;;;;;;17.83;9.02;;;;;;;2.85;100.00;100032.94;5047158;28;20024;-59
2022/01/08 10:32:56;;;;;;;14.30;8.40;;;;;;;2.83;100.00;100032.13;5048973;28;20036;-59
2022/01/08 10:35:47;;;;;;;18.70;8.77;;;;;;;2.83;100.00;100024.34;5047318;28;20032;-60
2022/01/08 10:38:13;;;;;;;13.75;7.68;;;;;;;2.81;100.00;100007.97;5031681;28;20032;-60
2022/01/08 10:40:38;;;;;;;11.95;8.25;;;;;;;2.83;100.00;100002.75;5047003;28;20097;-60
2022/01/08 10:43:20;;;;;;;17.17;8.43;;;;;;;2.83;100.00;99997.56;5044946;28;20031;-60
2022/01/08 10:45:45;;;;;;;14.73;7.32;;;;;;;2.83;100.00;99998.41;5062997;28;20164;-59
2022/01/08 10:48:10;;;;;;;15.48;6.93;;;;;;;2.34;100.00;99901.97;5047847;28;20061;-59
2022/01/08 10:50:36;;;;;;;14.40;6.93;;;;;;;2.90;100.00;99979.22;5049005;28;20869;-60
2022/01/08 10:53:01;;;;;;;19.50;7.40;;;;;;;2.95;100.00;99982.53;5064099;28;20121;-60
2022/01/08 10:55:31;;;;;;;18.08;6.78;;;;;;;2.98;100.00;99972.06;5048842;28;20147;-60
2022/01/08 10:57:56;;;;;;;9.70;5.95;;;;;;;2.99;100.00;99960.81;5062746;28;20020;-60
2022/01/08 11:00:30;;;;;;;9.93;5.65;;;;;;;3.12;100.00;99957.88;5047511;28;20132;-60
2022/01/08 11:02:56;;;;;;;10.50;6.00;;;;;;;3.19;100.00;99946.44;5047590;28;20024;-59
2022/01/08 11:05:22;;;;;;;12.05;4.53;;;;;;;3.26;100.00;99934.97;5046753;28;20401;-60
2022/01/08 11:07:47;;;;;;;11.90;5.68;;;;;;;3.25;100.00;99930.66;5030807;28;20937;-60
2022/01/08 11:10:20;;;;;;;10.98;5.40;;;;;;;3.32;100.00;99925.28;5029751;28;20487;-59
2022/01/08 11:12:47;;;;;;;7.47;4.50;;;;;;;3.36;100.00;99920.84;5047782;28;20979;-60
2022/01/08 11:17:46;;;;;;;10.93;4.38;;;;;;;3.20;100.00;99904.00;5047434;28;20125;-60
2022/01/08 11:20:25;;;;;;;10.60;4.50;;;;;;;3.14;100.00;99867.84;5029838;28;20024;-60
2022/01/08 11:22:52;;;;;;;12.80;4.90;;;;;;;3.51;100.00;99907.44;5046752;28;20987;-60
2022/01/08 11:25:23;;;;;;;10.82;4.53;;;;;;;3.60;100.00;99896.75;5047890;28;20048;-59
2022/01/08 11:28:05;;;;;;;9.15;4.80;;;;;;;3.55;100.00;99880.44;5046096;28;20041;-59
2022/01/08 11:30:36;;;;;;;13.02;4.18;;;;;;;3.52;100.00;99860.63;5047598;28;20137;-59